sensor_id;sensor_type;location;lat;lon;timestamp;pressure;altitude;pressure_sealevel;temperature;humidity
13612;BME280;6877;51.436;6.774;2023-05-29T00:01:37;101632.22;;;13.47;64.85
13612;BME280;6877;51.436;6.774;2023-05-29T00:04:04;101619.06;;;13.45;65.04
13612;BME280;6877;51.436;6.774;2023-05-29T00:06:30;101626.19;;;13.39;65.19
13612;BME280;6877;51.436;6.774;2023-05-29T00:08:57;101625.41;;;13.32;65.59
13612;BME280;6877;51.436;6.774;2023-05-29T00:11:23;101633.44;;;13.25;65.95
13612;BME280;6877;51.436;6.774;2023-05-29T00:13:50;101627.38;;;13.18;66.35
13612;BME280;6877;51.436;6.774;2023-05-29T00:16:16;101626.53;;;13.14;66.75
13612;BME280;6877;51.436;6.774;2023-05-29T00:18:44;101634.47;;;13.11;67.40
13612;BME280;6877;51.436;6.774;2023-05-29T00:21:17;101635.44;;;13.04;67.61
13612;BME280;6877;51.436;6.774;2023-05-29T00:23:49;101630.28;;;12.98;68.44
13612;BME280;6877;51.436;6.774;2023-05-29T00:26:15;101631.22;;;12.92;69.10
13612;BME280;6877;51.436;6.774;2023-05-29T00:28:43;101631.31;;;12.89;69.31
13612;BME280;6877;51.436;6.774;2023-05-29T00:31:09;101645.34;;;12.87;69.53
13612;BME280;6877;51.436;6.774;2023-05-29T00:33:40;101650.69;;;12.81;70.06
13612;BME280;6877;51.436;6.774;2023-05-29T00:36:07;101644.66;;;12.72;70.15
13612;BME280;6877;51.436;6.774;2023-05-29T00:38:34;101658.72;;;12.68;70.88
13612;BME280;6877;51.436;6.774;2023-05-29T00:41:00;101663.16;;;12.63;71.03
13612;BME280;6877;51.436;6.774;2023-05-29T00:43:33;101669.38;;;12.56;71.13
13612;BME280;6877;51.436;6.774;2023-05-29T00:46:05;101673.84;;;12.49;71.79
13612;BME280;6877;51.436;6.774;2023-05-29T00:48:36;101673.03;;;12.43;72.14
13612;BME280;6877;51.436;6.774;2023-05-29T00:51:09;101671.28;;;12.42;73.36
13612;BME280;6877;51.436;6.774;2023-05-29T00:53:38;101673.06;;;12.40;73.91
13612;BME280;6877;51.436;6.774;2023-05-29T00:56:05;101674.88;;;12.35;74.03
13612;BME280;6877;51.436;6.774;2023-05-29T00:58:38;101673.16;;;12.31;75.12
13612;BME280;6877;51.436;6.774;2023-05-29T01:01:04;101678.44;;;12.27;76.19
13612;BME280;6877;51.436;6.774;2023-05-29T01:03:32;101673.22;;;12.24;76.34
13612;BME280;6877;51.436;6.774;2023-05-29T01:05:58;101676.81;;;12.17;76.54
13612;BME280;6877;51.436;6.774;2023-05-29T01:08:25;101673.34;;;12.12;77.41
13612;BME280;6877;51.436;6.774;2023-05-29T01:11:00;101674.28;;;12.06;77.30
13612;BME280;6877;51.436;6.774;2023-05-29T01:13:36;101674.34;;;12.02;78.21
13612;BME280;6877;51.436;6.774;2023-05-29T01:18:47;101677.09;;;11.90;79.04
13612;BME280;6877;51.436;6.774;2023-05-29T01:24:50;101677.22;;;11.73;79.88
13612;BME280;6877;51.436;6.774;2023-05-29T01:27:29;101694.72;;;11.66;80.16
13612;BME280;6877;51.436;6.774;2023-05-29T01:29:58;101684.25;;;11.63;79.77
13612;BME280;6877;51.436;6.774;2023-05-29T01:32:25;101692.19;;;11.55;78.71
13612;BME280;6877;51.436;6.774;2023-05-29T01:34:57;101689.63;;;11.51;77.46
13612;BME280;6877;51.436;6.774;2023-05-29T01:37:23;101693.13;;;11.48;76.74
13612;BME280;6877;51.436;6.774;2023-05-29T01:39:50;101694.91;;;11.42;76.15
13612;BME280;6877;51.436;6.774;2023-05-29T01:42:16;101680.09;;;11.34;75.91
13612;BME280;6877;51.436;6.774;2023-05-29T01:44:48;101686.22;;;11.33;75.61
13612;BME280;6877;51.436;6.774;2023-05-29T01:47:15;101695.00;;;11.29;75.53
13612;BME280;6877;51.436;6.774;2023-05-29T01:49:43;101698.50;;;11.25;75.56
13612;BME280;6877;51.436;6.774;2023-05-29T01:52:10;101705.53;;;11.19;75.88
13612;BME280;6877;51.436;6.774;2023-05-29T01:54:41;101701.22;;;11.11;76.36
13612;BME280;6877;51.436;6.774;2023-05-29T01:57:13;101707.34;;;11.09;76.64
13612;BME280;6877;51.436;6.774;2023-05-29T01:59:39;101702.13;;;11.04;77.35
13612;BME280;6877;51.436;6.774;2023-05-29T02:02:08;101702.16;;;11.01;77.85
13612;BME280;6877;51.436;6.774;2023-05-29T02:04:34;101701.28;;;10.96;78.28
13612;BME280;6877;51.436;6.774;2023-05-29T02:07:06;101702.19;;;10.90;78.46
13612;BME280;6877;51.436;6.774;2023-05-29T02:09:34;101700.47;;;10.83;79.28
13612;BME280;6877;51.436;6.774;2023-05-29T02:12:01;101704.88;;;10.77;79.37
13612;BME280;6877;51.436;6.774;2023-05-29T02:14:28;101722.34;;;10.76;79.37
13612;BME280;6877;51.436;6.774;2023-05-29T02:17:00;101717.13;;;10.70;79.65
13612;BME280;6877;51.436;6.774;2023-05-29T02:19:27;101716.25;;;10.62;79.60
13612;BME280;6877;51.436;6.774;2023-05-29T02:21:53;101705.78;;;10.59;79.66
13612;BME280;6877;51.436;6.774;2023-05-29T02:24:25;101703.19;;;10.56;79.86
13612;BME280;6877;51.436;6.774;2023-05-29T02:26:52;101709.31;;;10.52;79.93
13612;BME280;6877;51.436;6.774;2023-05-29T02:29:19;101710.22;;;10.48;80.00
13612;BME280;6877;51.436;6.774;2023-05-29T02:31:45;101712.84;;;10.44;79.92
13612;BME280;6877;51.436;6.774;2023-05-29T02:34:17;101714.56;;;10.42;79.96
13612;BME280;6877;51.436;6.774;2023-05-29T02:36:43;101709.34;;;10.39;80.27
13612;BME280;6877;51.436;6.774;2023-05-29T02:39:10;101712.84;;;10.34;80.37
13612;BME280;6877;51.436;6.774;2023-05-29T02:41:37;101712.88;;;10.29;80.53
13612;BME280;6877;51.436;6.774;2023-05-29T02:44:04;101714.59;;;10.27;80.92
13612;BME280;6877;51.436;6.774;2023-05-29T02:46:35;101722.41;;;10.24;80.95
13612;BME280;6877;51.436;6.774;2023-05-29T02:49:07;101716.34;;;10.22;81.08
13612;BME280;6877;51.436;6.774;2023-05-29T02:51:33;101722.44;;;10.21;81.09
13612;BME280;6877;51.436;6.774;2023-05-29T02:54:00;101724.19;;;10.16;81.09
13612;BME280;6877;51.436;6.774;2023-05-29T02:56:26;101718.97;;;10.13;81.16
13612;BME280;6877;51.436;6.774;2023-05-29T02:58:57;101728.53;;;10.14;81.22
13612;BME280;6877;51.436;6.774;2023-05-29T03:01:24;101732.91;;;10.13;81.09
13612;BME280;6877;51.436;6.774;2023-05-29T03:03:50;101723.31;;;10.08;80.78
13612;BME280;6877;51.436;6.774;2023-05-29T03:06:17;101724.22;;;10.04;81.37
13612;BME280;6877;51.436;6.774;2023-05-29T03:08:44;101735.53;;;10.07;81.41
13612;BME280;6877;51.436;6.774;2023-05-29T03:11:16;101735.53;;;10.09;81.32
13612;BME280;6877;51.436;6.774;2023-05-29T03:13:48;101727.69;;;10.07;81.21
13612;BME280;6877;51.436;6.774;2023-05-29T03:16:15;101740.78;;;10.06;81.43
13612;BME280;6877;51.436;6.774;2023-05-29T03:18:42;101734.66;;;10.02;81.46
13612;BME280;6877;51.436;6.774;2023-05-29T03:21:09;101741.63;;;9.98;82.03
13612;BME280;6877;51.436;6.774;2023-05-29T03:23:36;101739.00;;;9.95;82.64
13612;BME280;6877;51.436;6.774;2023-05-29T03:26:08;101736.41;;;9.88;82.85
13612;BME280;6877;51.436;6.774;2023-05-29T03:28:34;101732.03;;;9.82;83.35
13612;BME280;6877;51.436;6.774;2023-05-29T03:31:02;101731.16;;;9.80;83.58
13612;BME280;6877;51.436;6.774;2023-05-29T03:33:28;101736.41;;;9.75;83.94
13612;BME280;6877;51.436;6.774;2023-05-29T03:36:00;101730.31;;;9.72;84.37
13612;BME280;6877;51.436;6.774;2023-05-29T03:38:26;101725.06;;;9.66;84.65
13612;BME280;6877;51.436;6.774;2023-05-29T03:40:53;101733.78;;;9.65;85.03
13612;BME280;6877;51.436;6.774;2023-05-29T03:43:19;101737.25;;;9.64;85.45
13612;BME280;6877;51.436;6.774;2023-05-29T03:45:50;101733.78;;;9.62;85.17
13612;BME280;6877;51.436;6.774;2023-05-29T03:48:22;101732.91;;;9.63;85.55
13612;BME280;6877;51.436;6.774;2023-05-29T03:50:53;101735.53;;;9.63;85.55
13612;BME280;6877;51.436;6.774;2023-05-29T03:53:24;101750.34;;;9.59;85.57
13612;BME280;6877;51.436;6.774;2023-05-29T03:55:56;101751.19;;;9.60;85.60
13612;BME280;6877;51.436;6.774;2023-05-29T03:58:28;101754.69;;;9.59;85.55
13612;BME280;6877;51.436;6.774;2023-05-29T04:00:54;101761.66;;;9.61;85.65
13612;BME280;6877;51.436;6.774;2023-05-29T04:03:26;101762.53;;;9.63;85.67
13612;BME280;6877;51.436;6.774;2023-05-29T04:05:52;101756.41;;;9.64;85.54
13612;BME280;6877;51.436;6.774;2023-05-29T04:08:24;101750.34;;;9.67;85.43
13612;BME280;6877;51.436;6.774;2023-05-29T04:10:56;101754.72;;;9.71;85.37
13612;BME280;6877;51.436;6.774;2023-05-29T04:13:28;101752.94;;;9.70;85.73
13612;BME280;6877;51.436;6.774;2023-05-29T04:15:59;101764.28;;;9.70;85.69
13612;BME280;6877;51.436;6.774;2023-05-29T04:18:31;101765.16;;;9.86;85.50
13612;BME280;6877;51.436;6.774;2023-05-29T04:20:57;101774.75;;;10.16;84.34
13612;BME280;6877;51.436;6.774;2023-05-29T04:23:29;101770.41;;;10.48;82.74
13612;BME280;6877;51.436;6.774;2023-05-29T04:25:55;101771.25;;;10.63;81.45
13612;BME280;6877;51.436;6.774;2023-05-29T04:28:27;101763.34;;;10.74;81.21
13612;BME280;6877;51.436;6.774;2023-05-29T04:30:58;101772.00;;;11.01;79.60
13612;BME280;6877;51.436;6.774;2023-05-29T04:33:25;101772.00;;;11.04;79.24
13612;BME280;6877;51.436;6.774;2023-05-29T04:35:56;101765.91;;;10.93;79.32
13612;BME280;6877;51.436;6.774;2023-05-29T04:38:23;101775.56;;;10.78;79.91
13612;BME280;6877;51.436;6.774;2023-05-29T04:40:57;101775.63;;;10.60;80.82
13612;BME280;6877;51.436;6.774;2023-05-29T04:43:31;101779.09;;;10.53;81.61
13612;BME280;6877;51.436;6.774;2023-05-29T04:46:03;101780.84;;;10.49;81.81
13612;BME280;6877;51.436;6.774;2023-05-29T04:48:34;101782.59;;;10.58;82.06
13612;BME280;6877;51.436;6.774;2023-05-29T04:51:00;101787.78;;;10.73;81.97
13612;BME280;6877;51.436;6.774;2023-05-29T04:53:32;101790.25;;;11.18;80.35
13612;BME280;6877;51.436;6.774;2023-05-29T04:55:58;101808.44;;;11.47;78.56
13612;BME280;6877;51.436;6.774;2023-05-29T04:58:25;101806.56;;;11.69;77.74
13612;BME280;6877;51.436;6.774;2023-05-29T05:00:57;101802.84;;;12.08;76.26
13612;BME280;6877;51.436;6.774;2023-05-29T05:03:30;101808.88;;;12.21;74.84
13612;BME280;6877;51.436;6.774;2023-05-29T05:06:00;101804.66;;;11.97;75.01
13612;BME280;6877;51.436;6.774;2023-05-29T05:08:29;101817.09;;;11.64;76.06
13612;BME280;6877;51.436;6.774;2023-05-29T05:10:56;101813.75;;;11.37;77.36
13612;BME280;6877;51.436;6.774;2023-05-29T05:13:28;101818.19;;;11.22;78.48
13612;BME280;6877;51.436;6.774;2023-05-29T05:15:59;101813.88;;;11.10;79.33
13612;BME280;6877;51.436;6.774;2023-05-29T05:18:26;101814.75;;;11.07;79.72
13612;BME280;6877;51.436;6.774;2023-05-29T05:20:53;101813.88;;;11.10;79.77
13612;BME280;6877;51.436;6.774;2023-05-29T05:23:19;101806.03;;;11.10;79.65
13612;BME280;6877;51.436;6.774;2023-05-29T05:25:46;101809.50;;;11.13;79.90
13612;BME280;6877;51.436;6.774;2023-05-29T05:28:17;101812.06;;;11.24;79.87
13612;BME280;6877;51.436;6.774;2023-05-29T05:30:49;101799.81;;;11.32;79.12
13612;BME280;6877;51.436;6.774;2023-05-29T05:33:20;101808.44;;;11.47;78.50
13612;BME280;6877;51.436;6.774;2023-05-29T05:35:52;101806.66;;;11.58;77.61
13612;BME280;6877;51.436;6.774;2023-05-29T05:38:19;101803.00;;;11.83;76.69
13612;BME280;6877;51.436;6.774;2023-05-29T05:40:45;101798.59;;;11.95;75.90
13612;BME280;6877;51.436;6.774;2023-05-29T05:43:12;101802.00;;;12.03;75.31
13612;BME280;6877;51.436;6.774;2023-05-29T05:45:43;101809.00;;;12.01;74.63
13612;BME280;6877;51.436;6.774;2023-05-29T05:48:10;101815.22;;;11.92;74.89
13612;BME280;6877;51.436;6.774;2023-05-29T05:50:36;101813.47;;;11.93;74.74
13612;BME280;6877;51.436;6.774;2023-05-29T05:53:02;101798.59;;;11.95;74.08
13612;BME280;6877;51.436;6.774;2023-05-29T05:55:34;101800.31;;;11.96;73.24
13612;BME280;6877;51.436;6.774;2023-05-29T05:58:00;101806.38;;;12.01;73.18
13612;BME280;6877;51.436;6.774;2023-05-29T06:00:27;101798.50;;;12.01;71.94
13612;BME280;6877;51.436;6.774;2023-05-29T06:02:54;101801.16;;;11.98;71.84
13612;BME280;6877;51.436;6.774;2023-05-29T06:05:25;101801.97;;;12.06;71.56
13612;BME280;6877;51.436;6.774;2023-05-29T06:07:52;101801.84;;;12.24;70.99
13612;BME280;6877;51.436;6.774;2023-05-29T06:10:19;101811.34;;;12.38;69.86
13612;BME280;6877;51.436;6.774;2023-05-29T06:12:50;101809.56;;;12.40;69.58
13612;BME280;6877;51.436;6.774;2023-05-29T06:15:18;101813.91;;;12.44;69.42
13612;BME280;6877;51.436;6.774;2023-05-29T06:17:44;101820.00;;;12.49;69.05
13612;BME280;6877;51.436;6.774;2023-05-29T06:20:11;101826.09;;;12.49;69.37
13612;BME280;6877;51.436;6.774;2023-05-29T06:22:38;101827.81;;;12.53;69.20
13612;BME280;6877;51.436;6.774;2023-05-29T06:25:04;101828.66;;;12.59;68.29
13612;BME280;6877;51.436;6.774;2023-05-29T06:27:31;101838.13;;;12.73;67.76
13612;BME280;6877;51.436;6.774;2023-05-29T06:29:57;101828.44;;;12.80;67.08
13612;BME280;6877;51.436;6.774;2023-05-29T06:32:24;101841.38;;;12.95;66.76
13612;BME280;6877;51.436;6.774;2023-05-29T06:34:50;101834.25;;;13.08;65.61
13612;BME280;6877;51.436;6.774;2023-05-29T06:37:20;101831.50;;;13.17;65.15
13612;BME280;6877;51.436;6.774;2023-05-29T06:39:46;101830.25;;;13.49;63.94
13612;BME280;6877;51.436;6.774;2023-05-29T06:42:13;101816.72;;;13.77;62.82
13612;BME280;6877;51.436;6.774;2023-05-29T06:44:44;101827.69;;;14.60;60.79
13612;BME280;6877;51.436;6.774;2023-05-29T06:47:11;101820.69;;;15.04;57.99
13612;BME280;6877;51.436;6.774;2023-05-29T06:49:37;101818.94;;;15.03;58.16
13612;BME280;6877;51.436;6.774;2023-05-29T06:52:03;101819.78;;;15.05;57.64
13612;BME280;6877;51.436;6.774;2023-05-29T06:54:30;101822.28;;;15.12;57.87
13612;BME280;6877;51.436;6.774;2023-05-29T06:56:57;101820.44;;;15.17;56.94
13612;BME280;6877;51.436;6.774;2023-05-29T06:59:23;101824.22;;;15.03;56.99
13612;BME280;6877;51.436;6.774;2023-05-29T07:01:50;101826.03;;;15.01;57.61
13612;BME280;6877;51.436;6.774;2023-05-29T07:04:16;101830.09;;;15.18;57.31
13612;BME280;6877;51.436;6.774;2023-05-29T07:06:42;101836.91;;;15.28;56.75
13612;BME280;6877;51.436;6.774;2023-05-29T07:09:09;101843.59;;;15.44;56.47
13612;BME280;6877;51.436;6.774;2023-05-29T07:11:40;101834.88;;;15.41;56.72
13612;BME280;6877;51.436;6.774;2023-05-29T07:14:07;101829.22;;;15.17;57.47
13612;BME280;6877;51.436;6.774;2023-05-29T07:16:33;101840.63;;;15.18;57.82
13612;BME280;6877;51.436;6.774;2023-05-29T07:19:00;101842.13;;;15.31;58.20
13612;BME280;6877;51.436;6.774;2023-05-29T07:21:26;101842.66;;;15.47;57.50
13612;BME280;6877;51.436;6.774;2023-05-29T07:23:59;101839.22;;;15.43;57.57
13612;BME280;6877;51.436;6.774;2023-05-29T07:26:30;101843.16;;;15.64;57.63
13612;BME280;6877;51.436;6.774;2023-05-29T07:28:58;101841.16;;;16.14;55.90
13612;BME280;6877;51.436;6.774;2023-05-29T07:31:24;101846.84;;;16.33;55.12
13612;BME280;6877;51.436;6.774;2023-05-29T07:33:51;101846.91;;;16.64;54.43
13612;BME280;6877;51.436;6.774;2023-05-29T07:36:17;101854.19;;;16.90;53.58
13612;BME280;6877;51.436;6.774;2023-05-29T07:38:44;101855.94;;;17.23;52.45
13612;BME280;6877;51.436;6.774;2023-05-29T07:41:16;101852.94;;;17.35;51.67
13612;BME280;6877;51.436;6.774;2023-05-29T07:43:43;101866.72;;;17.46;51.29
13612;BME280;6877;51.436;6.774;2023-05-29T07:46:12;101860.78;;;17.68;50.34
13612;BME280;6877;51.436;6.774;2023-05-29T07:48:38;101869.06;;;17.87;49.76
13612;BME280;6877;51.436;6.774;2023-05-29T07:51:10;101864.00;;;18.34;48.48
13612;BME280;6877;51.436;6.774;2023-05-29T07:53:37;101867.53;;;18.61;47.66
13612;BME280;6877;51.436;6.774;2023-05-29T07:56:03;101877.00;;;18.68;47.73
13612;BME280;6877;51.436;6.774;2023-05-29T07:58:35;101883.78;;;19.27;46.07
13612;BME280;6877;51.436;6.774;2023-05-29T08:01:06;101875.78;;;20.41;43.61
13612;BME280;6877;51.436;6.774;2023-05-29T08:03:37;101877.91;;;21.15;41.40
13612;BME280;6877;51.436;6.774;2023-05-29T08:06:04;101882.53;;;21.88;40.03
13612;BME280;6877;51.436;6.774;2023-05-29T08:08:30;101881.63;;;22.07;38.74
13612;BME280;6877;51.436;6.774;2023-05-29T08:10:58;101889.47;;;21.73;39.58
13612;BME280;6877;51.436;6.774;2023-05-29T08:13:24;101879.84;;;22.78;37.94
13612;BME280;6877;51.436;6.774;2023-05-29T08:15:50;101895.81;;;24.11;35.25
13612;BME280;6877;51.436;6.774;2023-05-29T08:18:17;101901.09;;;25.03;33.52
13612;BME280;6877;51.436;6.774;2023-05-29T08:20:48;101891.25;;;26.17;30.89
13612;BME280;6877;51.436;6.774;2023-05-29T08:23:15;101902.78;;;27.61;29.30
13612;BME280;6877;51.436;6.774;2023-05-29T08:25:47;101904.88;;;28.77;27.64
13612;BME280;6877;51.436;6.774;2023-05-29T08:28:14;101914.31;;;29.41;26.60
13612;BME280;6877;51.436;6.774;2023-05-29T08:30:41;101906.53;;;30.36;25.41
13612;BME280;6877;51.436;6.774;2023-05-29T08:33:08;101911.50;;;30.84;24.52
13612;BME280;6877;51.436;6.774;2023-05-29T08:35:39;101908.13;;;30.91;24.05
13612;BME280;6877;51.436;6.774;2023-05-29T08:38:06;101899.13;;;30.70;23.99
13612;BME280;6877;51.436;6.774;2023-05-29T08:40:38;101912.50;;;31.13;23.39
13612;BME280;6877;51.436;6.774;2023-05-29T08:43:19;101904.56;;;31.12;23.29
13612;BME280;6877;51.436;6.774;2023-05-29T08:45:47;101909.75;;;31.04;23.41
13612;BME280;6877;51.436;6.774;2023-05-29T08:48:18;101923.97;;;31.27;23.02
13612;BME280;6877;51.436;6.774;2023-05-29T08:50:45;101906.00;;;30.74;23.40
13612;BME280;6877;51.436;6.774;2023-05-29T08:53:15;101911.91;;;31.31;22.86
13612;BME280;6877;51.436;6.774;2023-05-29T08:55:42;101912.63;;;30.81;23.51
13612;BME280;6877;51.436;6.774;2023-05-29T08:58:11;101923.59;;;31.10;23.27
13612;BME280;6877;51.436;6.774;2023-05-29T09:00:38;101922.16;;;31.68;22.24
13612;BME280;6877;51.436;6.774;2023-05-29T09:03:07;101916.44;;;31.61;22.22
13612;BME280;6877;51.436;6.774;2023-05-29T09:05:33;101910.50;;;31.06;23.06
13612;BME280;6877;51.436;6.774;2023-05-29T09:08:00;101912.84;;;30.57;23.14
13612;BME280;6877;51.436;6.774;2023-05-29T09:10:28;101921.34;;;30.74;23.16
13612;BME280;6877;51.436;6.774;2023-05-29T09:12:56;101924.22;;;31.24;22.72
13612;BME280;6877;51.436;6.774;2023-05-29T09:15:23;101924.84;;;30.64;23.12
13612;BME280;6877;51.436;6.774;2023-05-29T09:17:50;101936.09;;;29.94;24.07
13612;BME280;6877;51.436;6.774;2023-05-29T09:20:24;101934.59;;;30.12;24.10
13612;BME280;6877;51.436;6.774;2023-05-29T09:22:58;101938.56;;;30.73;23.52
13612;BME280;6877;51.436;6.774;2023-05-29T09:25:28;101927.72;;;31.66;22.38
13612;BME280;6877;51.436;6.774;2023-05-29T09:28:05;101933.94;;;31.26;22.14
13612;BME280;6877;51.436;6.774;2023-05-29T09:30:44;101940.59;;;30.59;23.33
13612;BME280;6877;51.436;6.774;2023-05-29T09:33:12;101928.53;;;30.63;23.00
13612;BME280;6877;51.436;6.774;2023-05-29T09:35:49;101927.84;;;30.82;22.91
13612;BME280;6877;51.436;6.774;2023-05-29T09:38:17;101939.28;;;29.99;23.96
13612;BME280;6877;51.436;6.774;2023-05-29T09:40:49;101936.78;;;30.18;23.61
13612;BME280;6877;51.436;6.774;2023-05-29T09:43:16;101936.84;;;29.96;23.74
13612;BME280;6877;51.436;6.774;2023-05-29T09:45:49;101936.94;;;31.02;22.72
13612;BME280;6877;51.436;6.774;2023-05-29T09:48:17;101927.25;;;31.00;22.74
13612;BME280;6877;51.436;6.774;2023-05-29T09:50:45;101921.91;;;30.88;23.20
13612;BME280;6877;51.436;6.774;2023-05-29T09:53:23;101937.38;;;31.28;22.58
13612;BME280;6877;51.436;6.774;2023-05-29T09:55:56;101942.69;;;30.88;22.78
13612;BME280;6877;51.436;6.774;2023-05-29T09:58:25;101934.56;;;30.35;23.58
13612;BME280;6877;51.436;6.774;2023-05-29T10:00:56;101935.66;;;29.89;24.12
13612;BME280;6877;51.436;6.774;2023-05-29T10:03:24;101940.78;;;29.69;24.43
13612;BME280;6877;51.436;6.774;2023-05-29T10:05:52;101929.28;;;29.45;24.74
13612;BME280;6877;51.436;6.774;2023-05-29T10:08:20;101926.06;;;29.40;24.68
13612;BME280;6877;51.436;6.774;2023-05-29T10:10:55;101926.69;;;29.32;24.72
13612;BME280;6877;51.436;6.774;2023-05-29T10:13:36;101916.25;;;29.05;25.06
13612;BME280;6877;51.436;6.774;2023-05-29T10:16:11;101920.25;;;28.99;25.11
13612;BME280;6877;51.436;6.774;2023-05-29T10:18:44;101932.84;;;29.68;24.56
13612;BME280;6877;51.436;6.774;2023-05-29T10:21:16;101932.25;;;30.19;23.91
13612;BME280;6877;51.436;6.774;2023-05-29T10:23:50;101916.28;;;31.01;22.85
13612;BME280;6877;51.436;6.774;2023-05-29T10:26:37;101928.19;;;30.13;23.67
13612;BME280;6877;51.436;6.774;2023-05-29T10:32:20;101909.38;;;29.57;24.58
13612;BME280;6877;51.436;6.774;2023-05-29T10:37:42;101911.25;;;29.23;24.64
13612;BME280;6877;51.436;6.774;2023-05-29T10:40:22;101907.47;;;28.44;25.45
13612;BME280;6877;51.436;6.774;2023-05-29T10:42:54;101906.06;;;27.40;26.95
13612;BME280;6877;51.436;6.774;2023-05-29T10:50:44;101904.69;;;26.56;28.42
13612;BME280;6877;51.436;6.774;2023-05-29T10:53:26;101902.19;;;27.44;27.40
13612;BME280;6877;51.436;6.774;2023-05-29T10:55:59;101893.81;;;28.58;25.98
13612;BME280;6877;51.436;6.774;2023-05-29T10:58:32;101892.59;;;29.08;25.28
13612;BME280;6877;51.436;6.774;2023-05-29T11:00:58;101887.47;;;27.87;26.53
13612;BME280;6877;51.436;6.774;2023-05-29T11:03:31;101887.28;;;27.77;26.70
13612;BME280;6877;51.436;6.774;2023-05-29T11:06:17;101880.16;;;27.76;26.84
13612;BME280;6877;51.436;6.774;2023-05-29T11:08:53;101880.44;;;27.60;27.31
13612;BME280;6877;51.436;6.774;2023-05-29T11:11:33;101881.94;;;28.25;26.70
13612;BME280;6877;51.436;6.774;2023-05-29T11:14:07;101888.34;;;28.71;25.94
13612;BME280;6877;51.436;6.774;2023-05-29T11:16:39;101875.50;;;28.63;26.21
13612;BME280;6877;51.436;6.774;2023-05-29T11:19:08;101875.00;;;28.69;25.96
13612;BME280;6877;51.436;6.774;2023-05-29T11:24:25;101880.19;;;25.94;29.50
13612;BME280;6877;51.436;6.774;2023-05-29T11:26:54;101883.88;;;25.64;30.05
13612;BME280;6877;51.436;6.774;2023-05-29T11:29:25;101877.31;;;25.41;30.31
13612;BME280;6877;51.436;6.774;2023-05-29T11:31:58;101880.44;;;25.62;30.43
13612;BME280;6877;51.436;6.774;2023-05-29T11:34:27;101876.22;;;25.73;30.00
13612;BME280;6877;51.436;6.774;2023-05-29T11:36:54;101872.03;;;25.54;30.15
13612;BME280;6877;51.436;6.774;2023-05-29T11:39:28;101872.34;;;25.35;30.75
13612;BME280;6877;51.436;6.774;2023-05-29T11:42:00;101874.53;;;25.14;31.13
13612;BME280;6877;51.436;6.774;2023-05-29T11:44:26;101868.41;;;25.12;30.96
13612;BME280;6877;51.436;6.774;2023-05-29T11:47:06;101863.03;;;25.12;31.35
13612;BME280;6877;51.436;6.774;2023-05-29T11:49:38;101862.41;;;24.64;32.01
13612;BME280;6877;51.436;6.774;2023-05-29T11:52:14;101864.50;;;23.97;33.02
13612;BME280;6877;51.436;6.774;2023-05-29T11:54:45;101853.00;;;24.11;33.29
13612;BME280;6877;51.436;6.774;2023-05-29T11:57:20;101851.38;;;24.24;33.36
13612;BME280;6877;51.436;6.774;2023-05-29T11:59:52;101853.88;;;24.27;32.84
13612;BME280;6877;51.436;6.774;2023-05-29T12:02:25;101854.16;;;24.07;33.25
13612;BME280;6877;51.436;6.774;2023-05-29T12:05:18;101855.22;;;23.73;33.69
13612;BME280;6877;51.436;6.774;2023-05-29T12:07:55;101858.66;;;23.91;33.88
13612;BME280;6877;51.436;6.774;2023-05-29T12:10:23;101857.69;;;23.92;33.70
13612;BME280;6877;51.436;6.774;2023-05-29T12:12:59;101857.81;;;23.74;33.88
13612;BME280;6877;51.436;6.774;2023-05-29T12:15:32;101865.84;;;23.41;34.09
13612;BME280;6877;51.436;6.774;2023-05-29T12:18:03;101863.47;;;23.52;34.23
13612;BME280;6877;51.436;6.774;2023-05-29T12:20:35;101857.81;;;23.74;33.84
13612;BME280;6877;51.436;6.774;2023-05-29T12:23:02;101853.13;;;23.62;34.38
13612;BME280;6877;51.436;6.774;2023-05-29T12:25:29;101863.63;;;23.49;34.47
13612;BME280;6877;51.436;6.774;2023-05-29T12:27:56;101864.38;;;23.35;34.64
13612;BME280;6877;51.436;6.774;2023-05-29T12:30:24;101861.50;;;23.23;34.70
13612;BME280;6877;51.436;6.774;2023-05-29T12:32:56;101863.75;;;23.15;34.93
13612;BME280;6877;51.436;6.774;2023-05-29T12:35:24;101863.63;;;22.83;35.14
13612;BME280;6877;51.436;6.774;2023-05-29T12:38:01;101851.50;;;22.41;35.84
13612;BME280;6877;51.436;6.774;2023-05-29T12:40:29;101859.53;;;22.05;37.10
13612;BME280;6877;51.436;6.774;2023-05-29T12:42:58;101862.25;;;22.22;36.62
13612;BME280;6877;51.436;6.774;2023-05-29T12:45:27;101854.81;;;22.46;36.03
13612;BME280;6877;51.436;6.774;2023-05-29T12:48:04;101857.47;;;22.63;35.75
13612;BME280;6877;51.436;6.774;2023-05-29T12:50:38;101857.47;;;22.63;36.09
13612;BME280;6877;51.436;6.774;2023-05-29T12:53:10;101846.66;;;22.32;36.55
13612;BME280;6877;51.436;6.774;2023-05-29T12:55:38;101858.41;;;21.91;37.18
13612;BME280;6877;51.436;6.774;2023-05-29T12:58:11;101864.97;;;21.46;38.54
13612;BME280;6877;51.436;6.774;2023-05-29T13:00:44;101862.00;;;21.52;38.40
13612;BME280;6877;51.436;6.774;2023-05-29T13:03:17;101854.66;;;21.95;37.76
13612;BME280;6877;51.436;6.774;2023-05-29T13:05:43;101863.94;;;22.42;36.64
13612;BME280;6877;51.436;6.774;2023-05-29T13:08:10;101861.25;;;22.59;35.80
13612;BME280;6877;51.436;6.774;2023-05-29T13:10:41;101861.00;;;22.81;35.69
13612;BME280;6877;51.436;6.774;2023-05-29T13:13:13;101865.25;;;22.68;35.29
13612;BME280;6877;51.436;6.774;2023-05-29T13:15:39;101861.47;;;22.72;35.41
13612;BME280;6877;51.436;6.774;2023-05-29T13:18:06;101863.94;;;22.77;35.03
13612;BME280;6877;51.436;6.774;2023-05-29T13:20:33;101866.44;;;22.62;35.93
13612;BME280;6877;51.436;6.774;2023-05-29T13:22:59;101857.09;;;22.36;36.05
13612;BME280;6877;51.436;6.774;2023-05-29T13:25:26;101848.06;;;22.21;36.19
13612;BME280;6877;51.436;6.774;2023-05-29T13:27:53;101852.47;;;22.40;36.08
13612;BME280;6877;51.436;6.774;2023-05-29T13:30:19;101849.38;;;22.82;35.29
13612;BME280;6877;51.436;6.774;2023-05-29T13:32:52;101855.53;;;23.02;34.92